< < Back
Terminal Aerodrome Forecast


Current Version              Previous Versions:   1  2  3  4  5  6  7  8  9  

Terminal Aerodrome Forecast

360
FTUS44 KMOB 241700 RRA
TAFPNS
TAF
KPNS 241755Z 2418/2518 27008KT P6SM SCT100 BKN250
     FM250600 36014KT P6SM SCT250=



Latest METAR

651
SAUS70 KWBC 252100 RRA
MTRPNS
METAR KPNS 252053Z 00000KT 10SM BKN110 13/03 A3005 RMK AO2 SLP177 60000
T01280033 55003


USA.gov is the U.S. government's official web portal to all federal, state and local government web resources and services.